CVF2 weather

Fergus (Vodarek Field)
Ontario, Canada

Public forecast

Using degrees Celsius for public forecast. Weather courtesy of forecast.io.

Closest aviation weather report (METAR) to Fergus (Vodarek Field)

Closest report is Waterloo Airport, 16.2 nm (30.1 km) SSW. Retrieved 2019/11/14 05:00 UTC (20 minutes ago):

CYKF 140500Z AUTO 14008KT 9SM OVC100 M05/M07 A3012 RMK SLP220

Closest aviation forecast (TAF) to Fergus (Vodarek Field)

Closest forecast is Waterloo Airport, 16.2 nm (30.1 km) SSW. Retrieved 2019-11-14 02:39 UTC (3 hours ago):

TAF CYKF 140138Z 1402/1414 13008KT P6SM SCT030 OVC080 FM140700 20008KT 11/2SM -SN OVC012 TEMPO 1407/1414 6SM -SN FEW015 OVC030 BECMG 1408/1410 25010KT RMK FCST BASED ON AUTO OBS NXT FCST BY 140800Z